createdAt,value
2022-08-31T00:01:43.193Z,23.74
2022-08-31T00:04:09.595Z,23.71
2022-08-31T00:06:35.914Z,23.70
2022-08-31T00:09:02.275Z,23.68
2022-08-31T00:11:28.649Z,23.67
2022-08-31T00:13:55.030Z,23.68
2022-08-31T00:16:21.515Z,23.66
2022-08-31T00:18:47.833Z,23.61
2022-08-31T00:21:14.329Z,23.55
2022-08-31T00:23:40.701Z,23.49
2022-08-31T00:26:07.086Z,23.50
2022-08-31T00:28:33.526Z,23.50
2022-08-31T00:30:59.958Z,23.46
2022-08-31T00:33:26.362Z,23.44
2022-08-31T00:35:52.733Z,23.42
2022-08-31T00:38:19.101Z,23.43
2022-08-31T00:40:45.656Z,23.45
2022-08-31T00:43:12.085Z,23.40
2022-08-31T00:45:38.424Z,23.43
2022-08-31T00:48:04.886Z,23.43
2022-08-31T00:50:31.255Z,23.44
2022-08-31T00:52:57.617Z,23.45
2022-08-31T00:55:24.043Z,23.44
2022-08-31T00:57:50.428Z,23.41
2022-08-31T01:00:16.797Z,23.40
2022-08-31T01:02:43.188Z,23.34
2022-08-31T01:05:09.576Z,23.28
2022-08-31T01:07:35.938Z,23.23
2022-08-31T01:10:02.306Z,23.19
2022-08-31T01:12:28.705Z,23.11
2022-08-31T01:14:55.077Z,23.00
2022-08-31T01:17:21.571Z,22.90
2022-08-31T01:19:48.004Z,22.85
2022-08-31T01:22:14.432Z,22.77
2022-08-31T01:24:40.846Z,22.75
2022-08-31T01:27:07.215Z,22.78
2022-08-31T01:29:33.653Z,22.79
2022-08-31T01:32:00.093Z,22.79
2022-08-31T01:34:26.503Z,22.80
2022-08-31T01:36:52.934Z,22.85
2022-08-31T01:39:19.353Z,22.87
2022-08-31T01:41:45.751Z,22.87
2022-08-31T01:44:12.123Z,22.85
2022-08-31T01:46:38.579Z,22.75
2022-08-31T01:49:04.992Z,22.74
2022-08-31T01:51:31.370Z,22.76
2022-08-31T01:53:57.735Z,22.79
2022-08-31T01:56:24.135Z,22.82
2022-08-31T01:58:50.636Z,22.88
2022-08-31T02:01:33.209Z,22.87
2022-08-31T02:03:43.404Z,22.90
2022-08-31T02:06:09.770Z,22.92
2022-08-31T02:08:36.133Z,22.91
2022-08-31T02:11:02.525Z,22.86
2022-08-31T02:13:28.891Z,22.85
2022-08-31T02:15:55.354Z,22.80
2022-08-31T02:18:21.644Z,22.80
2022-08-31T02:20:48.005Z,22.82
2022-08-31T02:23:14.410Z,22.76
2022-08-31T02:25:40.747Z,22.70
2022-08-31T02:28:07.217Z,22.79
2022-08-31T02:30:33.617Z,22.84
2022-08-31T02:32:59.991Z,22.82
2022-08-31T02:35:26.355Z,22.77
2022-08-31T02:37:52.734Z,22.71
2022-08-31T02:40:19.211Z,22.66
2022-08-31T02:42:53.832Z,22.60
2022-08-31T02:45:11.926Z,22.59
2022-08-31T02:47:38.461Z,22.57
2022-08-31T02:50:04.827Z,22.59
2022-08-31T02:52:31.211Z,22.64
2022-08-31T02:54:57.620Z,22.66
2022-08-31T02:57:23.966Z,22.63
2022-08-31T02:59:50.351Z,22.59
2022-08-31T03:02:16.868Z,22.56
2022-08-31T03:04:43.126Z,22.52
2022-08-31T03:07:09.522Z,22.50
2022-08-31T03:09:35.916Z,22.51
2022-08-31T03:12:02.289Z,22.51
2022-08-31T03:14:28.675Z,22.53
2022-08-31T03:16:55.082Z,22.52
2022-08-31T03:19:21.484Z,22.50
2022-08-31T03:21:47.916Z,22.45
2022-08-31T03:24:14.327Z,22.40
2022-08-31T03:26:40.715Z,22.39
2022-08-31T03:29:07.095Z,22.33
2022-08-31T03:31:33.495Z,22.23
2022-08-31T03:33:59.826Z,22.07
2022-08-31T03:36:26.201Z,22.01
2022-08-31T03:38:52.605Z,21.92
2022-08-31T03:41:18.994Z,21.90
2022-08-31T03:43:45.352Z,21.91
2022-08-31T03:46:12.321Z,21.91
2022-08-31T03:48:38.217Z,21.93
2022-08-31T03:51:04.580Z,21.93
2022-08-31T03:53:30.947Z,21.91
2022-08-31T03:55:57.349Z,21.91
2022-08-31T03:58:23.806Z,21.92
2022-08-31T04:00:50.167Z,21.95
2022-08-31T04:03:16.531Z,21.94
2022-08-31T04:05:42.939Z,21.92
2022-08-31T04:08:09.322Z,21.97
2022-08-31T04:10:35.685Z,21.96
2022-08-31T04:13:02.073Z,21.97
2022-08-31T04:15:29.410Z,21.98
2022-08-31T04:17:57.214Z,21.97
2022-08-31T04:20:24.467Z,22.01
2022-08-31T04:22:47.602Z,21.95
2022-08-31T04:25:14.002Z,21.94
2022-08-31T04:27:40.391Z,21.89
2022-08-31T04:30:06.813Z,21.89
2022-08-31T04:32:33.179Z,21.97
2022-08-31T04:34:59.581Z,22.00
2022-08-31T04:37:25.947Z,22.06
2022-08-31T04:39:52.438Z,22.10
2022-08-31T04:42:18.722Z,22.11
2022-08-31T04:44:45.098Z,22.09
2022-08-31T04:47:11.458Z,22.13
2022-08-31T04:49:37.879Z,22.16
2022-08-31T04:52:04.299Z,22.18
2022-08-31T04:54:30.727Z,22.20
2022-08-31T04:56:57.159Z,22.22
2022-08-31T04:59:23.549Z,22.23
2022-08-31T05:01:50.069Z,22.25
2022-08-31T05:04:16.305Z,22.34
2022-08-31T05:06:42.717Z,22.58
2022-08-31T05:09:09.076Z,22.79
2022-08-31T05:11:35.456Z,22.99
2022-08-31T05:14:01.846Z,23.18
2022-08-31T05:16:28.274Z,23.35
2022-08-31T05:18:54.589Z,23.32
2022-08-31T05:21:20.951Z,23.22
2022-08-31T05:23:47.373Z,23.18
2022-08-31T05:26:13.731Z,23.25
2022-08-31T05:28:40.103Z,23.33
2022-08-31T05:31:06.639Z,23.45
2022-08-31T05:33:32.996Z,23.53
2022-08-31T05:35:59.353Z,23.58
2022-08-31T05:38:25.730Z,23.67
2022-08-31T05:40:52.160Z,23.77
2022-08-31T05:43:18.725Z,23.98
2022-08-31T05:45:44.925Z,24.24
2022-08-31T05:48:11.344Z,24.39
2022-08-31T05:50:37.758Z,24.48
2022-08-31T05:53:04.201Z,24.62
2022-08-31T05:55:30.559Z,24.74
2022-08-31T05:57:56.932Z,24.83
2022-08-31T06:00:23.402Z,24.99
2022-08-31T06:02:53.705Z,25.16
2022-08-31T06:05:16.243Z,25.24
2022-08-31T06:07:42.568Z,25.42
2022-08-31T06:10:08.954Z,25.63
2022-08-31T06:12:35.354Z,25.86
2022-08-31T06:15:01.718Z,26.06
2022-08-31T06:17:28.091Z,26.24
2022-08-31T06:19:54.458Z,26.31
2022-08-31T06:22:20.993Z,26.41
2022-08-31T06:24:47.372Z,26.53
2022-08-31T06:27:13.748Z,26.67
2022-08-31T06:29:40.289Z,26.87
2022-08-31T06:32:06.662Z,27.02
2022-08-31T06:34:33.047Z,27.21
2022-08-31T06:36:59.464Z,27.38
2022-08-31T06:39:25.877Z,27.55
2022-08-31T06:41:52.243Z,27.72
2022-08-31T06:44:18.697Z,27.93
2022-08-31T06:46:47.123Z,28.11
2022-08-31T06:49:11.657Z,28.24
2022-08-31T06:51:38.246Z,28.40
2022-08-31T06:54:21.748Z,28.53
2022-08-31T06:56:31.155Z,28.59
2022-08-31T06:58:57.511Z,28.75
2022-08-31T07:01:35.319Z,28.83
2022-08-31T07:03:50.297Z,28.88
2022-08-31T07:06:16.697Z,29.05
2022-08-31T07:08:43.127Z,29.07
2022-08-31T07:11:09.506Z,29.12
2022-08-31T07:13:35.887Z,29.34
2022-08-31T07:16:02.288Z,29.62
2022-08-31T07:18:28.652Z,29.60
2022-08-31T07:20:55.078Z,29.72
2022-08-31T07:23:21.435Z,29.68
2022-08-31T07:25:47.801Z,29.92
2022-08-31T07:28:14.196Z,30.27
2022-08-31T07:30:40.648Z,30.63
2022-08-31T07:33:06.970Z,30.85
2022-08-31T07:35:33.343Z,31.06
2022-08-31T07:37:59.713Z,31.29
2022-08-31T07:40:26.114Z,31.35
2022-08-31T07:42:52.457Z,31.59
2022-08-31T07:45:18.826Z,31.78
2022-08-31T07:47:45.340Z,31.91
2022-08-31T07:50:11.563Z,32.09
2022-08-31T07:52:37.969Z,32.22
2022-08-31T07:55:04.324Z,32.29
2022-08-31T07:57:30.759Z,32.28
2022-08-31T07:59:57.120Z,32.32
2022-08-31T08:02:23.622Z,32.38
2022-08-31T08:04:49.966Z,32.41
2022-08-31T08:07:16.342Z,32.31
2022-08-31T08:09:42.818Z,32.57
2022-08-31T08:12:09.259Z,32.73
2022-08-31T08:14:35.626Z,32.91
2022-08-31T08:17:01.996Z,32.90
2022-08-31T08:19:28.384Z,32.93
2022-08-31T08:21:54.886Z,33.09
2022-08-31T08:24:21.257Z,33.16
2022-08-31T08:26:52.095Z,33.25
2022-08-31T08:29:14.057Z,33.29
2022-08-31T08:31:40.622Z,33.35
2022-08-31T08:34:06.898Z,33.40
2022-08-31T08:36:33.267Z,33.58
2022-08-31T08:39:00.681Z,33.59
2022-08-31T08:41:27.053Z,33.60
2022-08-31T08:43:53.444Z,33.60
2022-08-31T08:46:33.962Z,33.62
2022-08-31T08:48:46.587Z,33.77
2022-08-31T08:51:12.964Z,33.91
2022-08-31T08:53:39.343Z,33.95
2022-08-31T08:56:29.621Z,34.12
2022-08-31T08:58:32.106Z,34.17
2022-08-31T09:00:58.509Z,34.35
2022-08-31T09:03:24.889Z,34.45
2022-08-31T09:05:51.252Z,34.38
2022-08-31T09:08:17.632Z,34.47
2022-08-31T09:10:44.030Z,34.47
2022-08-31T09:13:10.373Z,34.63
2022-08-31T09:15:37.044Z,34.56
2022-08-31T09:18:03.202Z,34.45
2022-08-31T09:20:29.688Z,34.51
2022-08-31T09:22:56.079Z,34.85
2022-08-31T09:25:22.434Z,35.08
2022-08-31T09:27:48.823Z,35.16
2022-08-31T09:30:15.178Z,35.06
2022-08-31T09:32:41.546Z,35.02
2022-08-31T09:35:07.983Z,35.21
2022-08-31T09:37:34.341Z,35.13
2022-08-31T09:40:04.304Z,35.19
2022-08-31T09:42:27.100Z,35.08
2022-08-31T09:44:53.509Z,35.29
2022-08-31T09:47:19.910Z,35.40
2022-08-31T09:49:46.325Z,35.59
2022-08-31T09:52:12.703Z,35.50
2022-08-31T09:54:42.101Z,35.69
2022-08-31T09:57:05.584Z,35.91
2022-08-31T09:59:31.957Z,36.05
2022-08-31T10:01:58.315Z,36.24
2022-08-31T10:04:24.729Z,36.48
2022-08-31T10:06:51.119Z,36.56
2022-08-31T10:09:17.506Z,36.52
2022-08-31T10:11:43.903Z,36.12
2022-08-31T10:14:10.292Z,35.97
2022-08-31T10:16:36.667Z,35.77
2022-08-31T10:19:03.160Z,35.79
2022-08-31T10:21:29.541Z,35.94
2022-08-31T10:23:56.025Z,36.14
2022-08-31T10:26:22.425Z,35.98
2022-08-31T10:28:48.794Z,35.61
2022-08-31T10:31:15.221Z,35.46
2022-08-31T10:33:41.604Z,34.99
2022-08-31T10:36:08.012Z,34.50
2022-08-31T10:38:34.427Z,34.08
2022-08-31T10:41:00.784Z,33.75
2022-08-31T10:43:27.282Z,33.56
2022-08-31T10:45:53.693Z,33.21
2022-08-31T10:48:20.046Z,33.22
2022-08-31T10:50:46.411Z,33.31
2022-08-31T10:53:12.859Z,33.29
2022-08-31T10:55:39.195Z,33.20
2022-08-31T10:58:05.573Z,33.09
2022-08-31T11:00:31.957Z,32.66
2022-08-31T11:02:58.378Z,32.56
2022-08-31T11:05:24.758Z,32.47
2022-08-31T11:07:51.149Z,32.31
2022-08-31T11:10:17.638Z,32.22
2022-08-31T11:12:44.021Z,32.00
2022-08-31T11:15:10.379Z,31.78
2022-08-31T11:17:36.806Z,31.59
2022-08-31T11:20:03.264Z,31.39
2022-08-31T11:22:29.676Z,30.97
2022-08-31T11:24:56.042Z,31.04
2022-08-31T11:27:22.464Z,31.04
2022-08-31T11:29:48.834Z,30.97
2022-08-31T11:32:15.207Z,30.98
2022-08-31T11:34:41.593Z,30.57
2022-08-31T11:37:07.959Z,30.66
2022-08-31T11:39:34.344Z,30.56
2022-08-31T11:42:00.761Z,29.99
2022-08-31T11:44:27.120Z,29.89
2022-08-31T11:46:53.513Z,30.20
2022-08-31T11:49:19.875Z,30.32
2022-08-31T11:51:46.386Z,30.36
2022-08-31T11:54:12.809Z,30.31
2022-08-31T11:56:39.177Z,30.29
2022-08-31T11:59:05.579Z,30.23
2022-08-31T12:01:31.970Z,29.98
2022-08-31T12:03:58.337Z,29.89
2022-08-31T12:06:24.701Z,29.90
2022-08-31T12:08:51.093Z,29.83
2022-08-31T12:11:17.463Z,29.63
2022-08-31T12:13:43.841Z,29.40
2022-08-31T12:16:10.340Z,29.25
2022-08-31T12:18:36.614Z,29.16
2022-08-31T12:21:03.067Z,29.11
2022-08-31T12:23:30.632Z,29.08
2022-08-31T12:25:55.860Z,29.04
2022-08-31T12:28:22.261Z,28.95
2022-08-31T12:30:48.742Z,28.87
2022-08-31T12:33:15.184Z,28.82
2022-08-31T12:35:41.503Z,28.80
2022-08-31T12:38:07.876Z,28.80
2022-08-31T12:40:34.465Z,28.79
2022-08-31T12:43:00.740Z,28.62
2022-08-31T12:45:27.131Z,28.60
2022-08-31T12:47:53.628Z,28.08
2022-08-31T12:50:20.053Z,27.88
2022-08-31T12:52:46.436Z,27.62
2022-08-31T12:55:12.800Z,27.52
2022-08-31T12:57:39.260Z,27.48
2022-08-31T13:00:05.764Z,27.36
2022-08-31T13:02:34.822Z,27.30
2022-08-31T13:04:59.640Z,27.20
2022-08-31T13:07:26.066Z,27.15
2022-08-31T13:09:52.552Z,27.14
2022-08-31T13:12:18.933Z,27.15
2022-08-31T13:14:45.339Z,27.08
2022-08-31T13:17:11.746Z,27.16
2022-08-31T13:19:38.092Z,27.08
2022-08-31T13:22:04.508Z,27.04
2022-08-31T13:24:30.877Z,27.09
2022-08-31T13:26:57.239Z,27.07
2022-08-31T13:29:23.641Z,27.04
2022-08-31T13:31:50.033Z,26.97
2022-08-31T13:34:16.424Z,26.96
2022-08-31T13:36:43.012Z,27.02
2022-08-31T13:39:09.404Z,27.07
2022-08-31T13:41:35.767Z,27.04
2022-08-31T13:44:02.833Z,27.07
2022-08-31T13:46:41.857Z,27.10
2022-08-31T13:48:54.932Z,27.13
2022-08-31T13:51:21.328Z,27.11
2022-08-31T13:53:47.718Z,27.08
2022-08-31T13:56:14.080Z,27.09
2022-08-31T13:58:40.495Z,27.11
2022-08-31T14:01:06.935Z,27.13
2022-08-31T14:03:33.279Z,27.08
2022-08-31T14:05:59.647Z,27.01
2022-08-31T14:08:26.056Z,26.99
2022-08-31T14:10:52.422Z,27.06
2022-08-31T14:13:18.997Z,27.09
2022-08-31T14:15:45.162Z,27.11
2022-08-31T14:18:27.283Z,27.06
2022-08-31T14:20:38.011Z,26.92
2022-08-31T14:23:04.379Z,26.74
2022-08-31T14:25:30.780Z,26.72
2022-08-31T14:27:57.177Z,26.75
2022-08-31T14:30:23.560Z,26.75
2022-08-31T14:32:50.012Z,26.75
2022-08-31T14:35:16.369Z,26.73
2022-08-31T14:37:42.762Z,26.81
2022-08-31T14:40:09.300Z,26.96
2022-08-31T14:42:35.566Z,26.94
2022-08-31T14:45:02.005Z,26.81
2022-08-31T14:47:28.436Z,26.72
2022-08-31T14:49:54.797Z,26.62
2022-08-31T14:52:21.181Z,26.57
2022-08-31T14:54:47.561Z,26.56
2022-08-31T14:57:13.956Z,26.51
2022-08-31T14:59:40.318Z,26.44
2022-08-31T15:02:06.756Z,26.36
2022-08-31T15:04:33.170Z,26.29
2022-08-31T15:07:01.677Z,26.32
2022-08-31T15:09:25.948Z,26.44
2022-08-31T15:11:52.313Z,26.59
2022-08-31T15:14:18.696Z,26.72
2022-08-31T15:16:45.185Z,26.77
2022-08-31T15:19:11.448Z,26.79
2022-08-31T15:21:45.222Z,26.84
2022-08-31T15:24:04.226Z,26.92
2022-08-31T15:26:30.608Z,26.91
2022-08-31T15:28:57.000Z,26.92
2022-08-31T15:31:23.443Z,26.94
2022-08-31T15:33:49.846Z,26.93
2022-08-31T15:36:16.285Z,26.89
2022-08-31T15:38:42.712Z,26.82
2022-08-31T15:41:09.074Z,26.83
2022-08-31T15:43:35.442Z,26.83
2022-08-31T15:46:01.885Z,26.74
2022-08-31T15:48:28.199Z,26.64
2022-08-31T15:50:54.599Z,26.58
2022-08-31T15:53:20.997Z,26.52
2022-08-31T15:55:47.616Z,26.46
2022-08-31T15:58:14.002Z,26.39
2022-08-31T16:00:40.407Z,26.33
2022-08-31T16:03:06.826Z,26.28
2022-08-31T16:05:33.196Z,26.26
2022-08-31T16:07:59.562Z,26.29
2022-08-31T16:10:25.936Z,26.30
2022-08-31T16:12:52.305Z,26.31
2022-08-31T16:15:20.405Z,26.33
2022-08-31T16:17:45.151Z,26.35
2022-08-31T16:20:11.519Z,26.34
2022-08-31T16:22:37.909Z,26.34
2022-08-31T16:25:04.326Z,26.34
2022-08-31T16:27:30.722Z,26.33
2022-08-31T16:29:57.128Z,26.32
2022-08-31T16:32:23.485Z,26.31
2022-08-31T16:34:49.863Z,26.30
2022-08-31T16:37:16.229Z,26.15
2022-08-31T16:39:42.605Z,26.01
2022-08-31T16:42:08.990Z,25.91
2022-08-31T16:44:36.579Z,25.82
2022-08-31T16:47:01.729Z,25.77
2022-08-31T16:49:28.139Z,25.74
2022-08-31T16:51:54.575Z,25.69
2022-08-31T16:54:20.943Z,25.65
2022-08-31T16:56:52.002Z,25.63
2022-08-31T16:59:13.749Z,25.61
2022-08-31T17:01:40.119Z,25.54
2022-08-31T17:04:06.480Z,25.50
2022-08-31T17:06:32.906Z,25.45
2022-08-31T17:08:59.275Z,25.39
2022-08-31T17:11:25.640Z,25.36
2022-08-31T17:13:52.124Z,25.34
2022-08-31T17:16:18.596Z,25.34
2022-08-31T17:18:44.932Z,25.31
2022-08-31T17:21:11.325Z,25.30
2022-08-31T17:23:37.709Z,25.30
2022-08-31T17:26:04.105Z,25.29
2022-08-31T17:28:30.556Z,25.27
2022-08-31T17:30:56.993Z,25.24
2022-08-31T17:33:23.370Z,25.16
2022-08-31T17:35:49.772Z,25.12
2022-08-31T17:38:16.204Z,25.11
2022-08-31T17:40:42.613Z,25.09
2022-08-31T17:43:08.980Z,25.05
2022-08-31T17:45:35.365Z,25.03
2022-08-31T17:48:01.752Z,25.01
2022-08-31T17:50:28.143Z,24.99
2022-08-31T17:52:54.534Z,25.01
2022-08-31T17:55:20.921Z,25.03
2022-08-31T17:57:47.317Z,25.07
2022-08-31T18:00:13.777Z,25.07
2022-08-31T18:02:40.148Z,25.03
2022-08-31T18:05:09.510Z,25.01
2022-08-31T18:07:32.980Z,24.98
2022-08-31T18:09:59.354Z,24.98
2022-08-31T18:12:25.941Z,24.99
2022-08-31T18:14:52.132Z,24.98
2022-08-31T18:17:18.530Z,24.94
2022-08-31T18:19:44.981Z,24.92
2022-08-31T18:22:11.370Z,24.93
2022-08-31T18:24:37.806Z,24.94
2022-08-31T18:27:04.268Z,25.02
2022-08-31T18:29:30.682Z,25.01
2022-08-31T18:31:57.210Z,24.96
2022-08-31T18:34:23.449Z,24.90
2022-08-31T18:36:49.829Z,24.86
2022-08-31T18:39:25.943Z,24.83
2022-08-31T18:41:42.614Z,24.82
2022-08-31T18:44:09.011Z,24.81
2022-08-31T18:46:35.448Z,24.81
2022-08-31T18:49:12.179Z,24.82
2022-08-31T18:51:28.213Z,24.83
2022-08-31T18:53:54.626Z,24.85
2022-08-31T18:56:21.055Z,24.84
2022-08-31T18:58:47.477Z,24.91
2022-08-31T19:01:14.134Z,24.92
2022-08-31T19:03:40.369Z,24.90
2022-08-31T19:06:06.764Z,24.87
2022-08-31T19:08:33.143Z,24.83
2022-08-31T19:10:59.599Z,24.83
2022-08-31T19:13:25.978Z,24.80
2022-08-31T19:15:52.360Z,24.80
2022-08-31T19:18:18.741Z,24.80
2022-08-31T19:20:45.145Z,24.77
2022-08-31T19:23:13.696Z,24.74
2022-08-31T19:25:37.991Z,24.73
2022-08-31T19:28:04.360Z,24.81
2022-08-31T19:30:30.786Z,24.88
2022-08-31T19:32:57.212Z,24.96
2022-08-31T19:35:25.856Z,24.97
2022-08-31T19:37:50.609Z,24.97
2022-08-31T19:40:16.601Z,24.98
2022-08-31T19:42:59.783Z,24.90
2022-08-31T19:45:40.353Z,24.85
2022-08-31T19:47:36.197Z,24.81
2022-08-31T19:50:02.551Z,24.73
2022-08-31T19:52:29.907Z,24.72
2022-08-31T19:55:09.216Z,24.75
2022-08-31T19:57:30.758Z,24.82
2022-08-31T19:59:57.136Z,24.79
2022-08-31T20:02:23.582Z,24.75
2022-08-31T20:04:49.876Z,24.70
2022-08-31T20:07:16.279Z,24.69
2022-08-31T20:09:42.639Z,24.68
2022-08-31T20:12:09.235Z,24.65
2022-08-31T20:14:35.508Z,24.62
2022-08-31T20:17:01.877Z,24.58
2022-08-31T20:19:28.305Z,24.52
2022-08-31T20:21:54.658Z,24.55
2022-08-31T20:24:21.033Z,24.57
2022-08-31T20:26:51.818Z,24.59
2022-08-31T20:29:13.811Z,24.54
2022-08-31T20:31:40.514Z,24.48
2022-08-31T20:34:06.642Z,24.40
2022-08-31T20:36:33.034Z,24.37
2022-08-31T20:38:59.410Z,24.38
2022-08-31T20:41:25.832Z,24.36
2022-08-31T20:43:52.216Z,24.36
2022-08-31T20:46:18.613Z,24.38
2022-08-31T20:48:44.986Z,24.34
2022-08-31T20:51:11.355Z,24.36
2022-08-31T20:53:42.573Z,24.35
2022-08-31T20:56:05.255Z,24.34
2022-08-31T20:58:31.688Z,24.34
2022-08-31T21:00:58.113Z,24.33
2022-08-31T21:03:24.530Z,24.28
2022-08-31T21:05:50.861Z,24.22
2022-08-31T21:08:17.255Z,24.16
2022-08-31T21:10:43.622Z,24.13
2022-08-31T21:13:10.002Z,24.16
2022-08-31T21:15:36.547Z,24.26
2022-08-31T21:18:02.948Z,24.24
2022-08-31T21:20:29.310Z,24.26
2022-08-31T21:22:55.710Z,24.24
2022-08-31T21:25:22.145Z,24.17
2022-08-31T21:27:48.521Z,24.17
2022-08-31T21:30:14.941Z,24.25
2022-08-31T21:32:41.324Z,24.20
2022-08-31T21:35:07.694Z,24.12
2022-08-31T21:37:34.104Z,24.03
2022-08-31T21:40:00.545Z,24.02
2022-08-31T21:42:26.858Z,23.96
2022-08-31T21:44:53.261Z,23.91
2022-08-31T21:47:19.637Z,23.89
2022-08-31T21:49:46.004Z,23.87
2022-08-31T21:52:12.395Z,23.90
2022-08-31T21:54:38.807Z,23.88
2022-08-31T21:57:05.186Z,23.85
2022-08-31T21:59:31.568Z,23.82
2022-08-31T22:01:57.970Z,23.74
2022-08-31T22:04:24.336Z,23.71
2022-08-31T22:06:50.699Z,23.67
2022-08-31T22:09:17.082Z,23.62
2022-08-31T22:11:43.556Z,23.61
2022-08-31T22:14:09.922Z,23.60
2022-08-31T22:16:36.324Z,23.58
2022-08-31T22:19:02.955Z,23.57
2022-08-31T22:21:29.074Z,23.55
2022-08-31T22:23:55.517Z,23.54
2022-08-31T22:26:21.896Z,23.52
2022-08-31T22:28:48.263Z,23.52
2022-08-31T22:31:14.739Z,23.49
2022-08-31T22:33:41.053Z,23.45
2022-08-31T22:36:07.472Z,23.44
2022-08-31T22:38:33.900Z,23.42
2022-08-31T22:41:00.263Z,23.39
2022-08-31T22:43:26.670Z,23.37
2022-08-31T22:45:53.051Z,23.37
2022-08-31T22:48:19.630Z,23.36
2022-08-31T22:50:45.920Z,23.33
2022-08-31T22:53:12.317Z,23.29
2022-08-31T22:55:38.702Z,23.29
2022-08-31T22:58:05.074Z,23.28
2022-08-31T23:00:31.462Z,23.27
2022-08-31T23:02:57.930Z,23.25
2022-08-31T23:05:24.330Z,23.22
2022-08-31T23:07:50.798Z,23.19
2022-08-31T23:10:17.228Z,23.16
2022-08-31T23:12:43.600Z,23.15
2022-08-31T23:15:09.993Z,23.16
2022-08-31T23:17:36.349Z,23.17
2022-08-31T23:20:02.737Z,23.15
2022-08-31T23:22:29.132Z,23.10
2022-08-31T23:24:55.489Z,23.08
2022-08-31T23:27:21.864Z,23.05
2022-08-31T23:29:48.255Z,23.03
2022-08-31T23:32:14.718Z,23.03
2022-08-31T23:34:41.075Z,22.97
2022-08-31T23:37:07.508Z,22.90
2022-08-31T23:39:33.879Z,22.78
2022-08-31T23:42:00.247Z,22.73
2022-08-31T23:44:26.678Z,22.68
2022-08-31T23:46:53.047Z,22.66
2022-08-31T23:49:19.440Z,22.65
2022-08-31T23:51:45.810Z,22.62
2022-08-31T23:54:12.199Z,22.61
2022-08-31T23:56:38.586Z,22.59
2022-08-31T23:59:05.069Z,22.56
